• Join FlightAware (Why Join?)
  • Login
  • US Flag 
01:48PM EDT


 

Airport Tracker/Info


-or-


 

Live Flight TrackerFlight Track Log ✈ DAL245 ✈ 26-Apr-2013 ✈ KJFK - KPHX

Flight Track Log - Related Links

Times and Time Zones

All times are in EDT time to prevent confusion due to time zone crossing. See the DAL245 flight status page for this flight to view local times or setup timezone preferences in your user account.

Time Position Orientation Groundspeed Altitude Reporting Facility
EDT Latitude Longitude Course Direction KTS MPH feet Rate Location/Type
08:16PM 40.5833 -73.8167 304° West 185 213 1,700  Level New York TRACON
08:17PM 40.5500 -73.7500 123° Southeast 256 295 3,400 1,680 Climbing New York TRACON
08:18PM 40.8310 -74.1382 301° West  Level FlightAware Approximate
08:18PM 40.6000 -73.6833 45° Northeast 264 304 5,000  Level New York TRACON
08:19PM 40.8974 -74.2728 306° West  Level FlightAware Approximate
08:19PM 40.6500 -73.6000 52° Northeast 267 307 6,900  Level New York TRACON
08:20PM 40.9692 -74.4025 323° Northwest  Level FlightAware Approximate
08:20PM 40.7000 -73.5500 37° Northeast 287 330 9,200  Level New York TRACON
08:21PM 41.0449 -74.5231 304° West  Level FlightAware Approximate
08:21PM 40.7833 -73.5667 351° North 282 325 10,800  Level New York TRACON
08:22PM 40.8667 -73.5833 351° North 332 382 11,700 1,320 Climbing New York TRACON
08:23PM 40.9333 -73.7000 307° West 364 419 13,500 1,740 Climbing New York TRACON
08:25PM 41.0431 -73.8964 307° West 388 447 17,000 1,500 Climbing New York Center
08:26PM 41.0831 -74.0386 291° West 374 430 17,900 1,140 Climbing New York Center
08:27PM 41.0978 -74.1769 278° West 384 442 19,300 1,620 Climbing New York Center
08:28PM 41.1064 -74.3094 275° West 390 449 21,200 1,860 Climbing New York Center
08:29PM 41.1186 -74.4561 276° West 395 455 23,100 1,740 Climbing New York Center
08:30PM 41.1306 -74.6056 276° West 410 472 24,800 1,440 Climbing New York Center
08:31PM 41.1631 -74.7533 286° West 410 472 26,100 1,200 Climbing New York Center
08:32PM 41.2231 -74.8922 300° West 416 479 27,200 1,500 Climbing New York Center
08:33PM 41.2806 -75.0308 299° West 428 493 29,100 1,380 Climbing New York Center
08:34PM 41.3403 -75.1644 301° West 433 498 30,000 420 Climbing New York Center
08:35PM 41.3956 -75.2981 299° West 422 486 30,000  Level New York Center
08:36PM 41.4531 -75.4294 300° West 417 480 30,000  Level New York Center
08:37PM 41.5017 -75.5683 295° West 412 474 30,000  Level New York Center
08:38PM 41.5417 -75.7100 291° West 412 474 30,000  Level New York Center
08:39PM 41.5814 -75.8514 291° West 407 468 30,000  Level New York Center
08:40PM 41.6267 -76.0075 291° West 407 468 30,000  Level New York Center
08:41PM 41.6661 -76.1494 290° West 407 468 30,000  Level New York Center
08:42PM 41.7075 -76.2944 291° West 413 475 30,000  Level New York Center
08:43PM 41.7486 -76.4397 291° West 418 481 30,000 1,980 Level New York Center
08:44PM 41.7872 -76.5850 290° West 418 481 34,000 1,500 Climbing New York Center
08:45PM 41.8208 -76.7075 290° West 408 470 33,000  Descending New York Center
08:46PM 41.8833 -76.9333 290° West 390 449 34,000 480 Climbing Toronto Center
08:47PM 41.9022 -77.0092 289° West 397 457 34,000  Level Cleveland Center
08:48PM 41.9397 -77.1439 291° West 397 457 34,000  Level Cleveland Center
08:49PM 41.9794 -77.2842 291° West 397 457 34,000  Level Cleveland Center
08:50PM 42.0144 -77.4222 289° West 402 463 34,000  Level Cleveland Center
08:51PM 42.0514 -77.5572 290° West 397 457 34,000  Level Cleveland Center
08:52PM 42.0886 -77.6983 290° West 397 457 34,000  Level Cleveland Center
08:53PM 42.1253 -77.8367 290° West 403 464 34,000  Level Cleveland Center
08:54PM 42.1619 -77.9753 290° West 403 464 34,000  Level Cleveland Center
08:55PM 42.1961 -78.1167 288° West 403 464 34,000  Level Cleveland Center
08:56PM 42.2300 -78.2389 291° West 403 464 34,000  Level Cleveland Center
08:57PM 42.2661 -78.3778 289° West 403 464 34,000  Level Cleveland Center
08:58PM 42.3022 -78.5197 289° West 403 464 34,000  Level Cleveland Center
08:59PM 42.3378 -78.6592 289° West 403 464 34,000  Level Cleveland Center
09:00PM 42.3733 -78.7956 289° West 403 464 34,000  Level Cleveland Center
09:01PM 42.4111 -78.9492 288° West 392 451 34,000  Level Cleveland Center
09:02PM 42.4442 -79.0864 288° West 392 451 34,000  Level Cleveland Center
09:03PM 42.4772 -79.2122 290° West 397 457 34,000  Level Cleveland Center
09:04PM 42.5161 -79.3494 291° West 397 457 34,000  Level Cleveland Center
09:05PM 42.5572 -79.4839 293° West 397 457 34,000  Level Cleveland Center
09:06PM 42.5981 -79.6214 292° West 397 457 34,000  Level Cleveland Center
09:07PM 42.6386 -79.7592 292° West 391 450 34,000  Level Cleveland Center
09:08PM 42.6792 -79.8914 293° West 391 450 34,000  Level Cleveland Center
09:09PM 42.7175 -80.0436 289° West 386 444 34,000  Level Cleveland Center
09:10PM 42.7575 -80.1761 292° West 386 444 34,000  Level Cleveland Center
09:11PM 42.7975 -80.3117 292° West 391 450 34,000  Level Cleveland Center
09:13PM 42.8667 -80.5500 292° West 380 437 34,000  Level Toronto Center
09:14PM 42.9000 -80.6833 289° West 380 437 34,000  Level Toronto Center
09:15PM 42.9333 -80.8167 289° West 380 437 34,000  Level Toronto Center
09:16PM 42.9667 -80.9500 289° West 380 437 34,000  Level Toronto Center
09:17PM 43.0000 -81.1000 287° West 380 437 34,000  Level Toronto Center
09:18PM 43.0333 -81.2333 289° West 380 437 34,000  Level Toronto Center
09:19PM 43.0667 -81.3667 289° West 380 437 34,000  Level Toronto Center
09:20PM 43.0833 -81.5333 278° West 380 437 34,000  Level Toronto Center
09:21PM 43.1000 -81.6500 281° West 380 437 34,000  Level Toronto Center
09:22PM 43.1167 -81.7833 280° West 380 437 34,000  Level Toronto Center
09:23PM 43.1333 -81.9333 279° West 380 437 34,000  Level Toronto Center
09:24PM 43.1500 -82.0833 279° West 380 437 34,000  Level Toronto Center
09:25PM 43.1833 -82.2333 287° West 380 437 34,000  Level Toronto Center
09:26PM 43.2000 -82.3833 279° West 380 437 34,000  Level Toronto Center
09:27PM 43.2167 -82.5167 280° West 380 437 34,000  Level Toronto Center
09:28PM 43.2478 -82.6694 286° West 389 448 34,000  Level Cleveland Center
09:29PM 43.2556 -82.8181 274° West 389 448 34,000  Level Cleveland Center
09:30PM 43.2567 -82.9692 271° West 389 448 34,000  Level Cleveland Center
09:31PM 43.2597 -83.1147 272° West 384 442 34,000  Level Cleveland Center
09:32PM 43.2608 -83.2600 271° West 384 442 34,000  Level Cleveland Center
09:33PM 43.2614 -83.4083 270° West 384 442 34,000  Level Cleveland Center
09:34PM 43.2619 -83.5539 270° West 384 442 34,000  Level Cleveland Center
09:35PM 43.2622 -83.6992 270° West 384 442 34,000  Level Cleveland Center
09:36PM 43.2619 -83.8617 270° West 384 442 34,000  Level Cleveland Center
09:37PM 43.2639 -84.0100 271° West 384 442 34,000  Level Cleveland Center
09:38PM 43.2614 -84.1611 269° West 384 442 34,000  Level Cleveland Center
09:39PM 43.2650 -84.3097 272° West 384 442 34,000  Level Cleveland Center
09:40PM 43.2628 -84.5431 269° West 393 452 34,000  Level Chicago Center
09:41PM 43.2333 -84.6000 235° Southwest 390 449 34,000  Level Toronto Center
09:42PM 43.2500 -84.7333 280° West 390 449 34,000  Level Toronto Center
09:42PM 43.2617 -84.8436 278° West 396 456 34,000  Level Chicago Center
09:43PM 43.2600 -84.9936 269° West 395 455 34,000  Level Chicago Center
09:45PM 43.2589 -85.1442 269° West 396 456 34,000  Level Chicago Center
09:46PM 43.2572 -85.2933 269° West 394 453 34,000  Level Chicago Center
09:47PM 43.2561 -85.4453 269° West 398 458 34,000  Level Chicago Center
09:48PM 43.2547 -85.6286 269° West 403 464 34,000  Level Chicago Center
09:49PM 43.2531 -85.7822 269° West 406 467 34,000  Level Chicago Center
09:50PM 43.2503 -85.9369 269° West 410 472 34,000  Level Chicago Center
09:51PM 43.2478 -86.0928 269° West 416 479 34,000  Level Chicago Center
09:52PM 43.2447 -86.2503 269° West 420 483 34,000  Level Chicago Center
09:53PM 43.2419 -86.4381 269° West 416 479 34,000  Level Chicago Center
09:54PM 43.2386 -86.5964 268° West 418 481 34,000  Level Chicago Center
09:55PM 43.2347 -86.7542 268° West 417 480 34,000  Level Chicago Center
09:56PM 43.2308 -86.9103 268° West 412 474 34,000  Level Chicago Center
09:57PM 43.2272 -87.0661 268° West 414 476 34,000  Level Chicago Center
09:58PM 43.2233 -87.2222 268° West 413 475 34,000  Level Chicago Center
09:59PM 43.2178 -87.3811 267° West 410 472 34,000  Level Chicago Center
10:00PM 43.2125 -87.5647 268° West 413 475 34,000  Level Chicago Center
10:01PM 43.2069 -87.7225 267° West 413 475 34,000  Level Chicago Center
10:02PM 43.2017 -87.8836 267° West 419 482 34,000  Level Chicago Center
10:03PM 43.1958 -88.0456 267° West 424 488 34,000  Level Chicago Center
10:04PM 43.1906 -88.2061 267° West 422 486 34,000  Level Chicago Center
10:05PM 43.1847 -88.3686 267° West 423 487 34,000  Level Chicago Center
10:06PM 43.1775 -88.5317 267° West 424 488 34,000  Level Chicago Center
10:07PM 43.1717 -88.6953 267° West 425 489 34,000  Level Chicago Center
10:08PM 43.1656 -88.8581 267° West 426 490 34,000  Level Chicago Center
10:09PM 43.1583 -89.0197 267° West 424 488 34,000  Level Chicago Center
10:10PM 43.1522 -89.1817 267° West 426 490 34,000  Level Chicago Center
10:11PM 43.1439 -89.3717 267° West 427 491 34,000  Level Chicago Center
10:12PM 43.1436 -89.5344 270° West 427 491 34,000  Level Chicago Center
10:13PM 43.1414 -89.6956 269° West 424 488 34,000  Level Chicago Center
10:14PM 43.1397 -89.8614 269° West 431 496 34,000  Level Chicago Center
10:15PM 43.1383 -90.0261 269° West 432 497 34,000  Level Chicago Center
10:16PM 43.1364 -90.1892 269° West 430 495 34,000  Level Chicago Center
10:17PM 43.1339 -90.3606 269° West 433 498 34,000  Level Chicago Center
10:18PM 43.1344 -90.5253 270° West 436 502 34,000  Level Chicago Center
10:19PM 43.1328 -90.6561 269° West 437 503 34,000  Level Minneapolis Center
10:20PM 43.1328 -90.8203 270° West 437 503 34,000  Level Minneapolis Center
10:21PM 43.1319 -90.9842 270° West 437 503 34,000  Level Minneapolis Center
10:22PM 43.1311 -91.1831 270° West 440 506 34,000  Level Minneapolis Center
10:23PM 43.1294 -91.3467 269° West 439 505 34,000  Level Minneapolis Center
10:24PM 43.1289 -91.5106 270° West 439 505 34,000  Level Minneapolis Center
10:25PM 43.1278 -91.6753 270° West 440 506 34,000  Level Minneapolis Center
10:26PM 43.1233 -91.8722 268° West 441 507 34,000  Level Minneapolis Center
10:28PM 43.1203 -92.0703 269° West 441 507 34,000  Level Minneapolis Center
10:29PM 43.1183 -92.2333 269° West 438 504 34,000  Level Minneapolis Center
10:30PM 43.1158 -92.3997 269° West 441 507 34,000  Level Minneapolis Center
10:31PM 43.1103 -92.5672 267° West 446 513 34,000  Level Minneapolis Center
10:32PM 43.1086 -92.7325 269° West 442 509 34,000  Level Minneapolis Center
10:33PM 43.1042 -92.8972 268° West 439 505 34,000  Level Minneapolis Center
10:34PM 43.1006 -93.0981 269° West 443 510 34,000  Level Minneapolis Center
10:35PM 43.0975 -93.2294 268° West 441 507 34,000  Level Minneapolis Center
10:36PM 43.0725 -93.4278 260° West 446 513 34,000  Level Minneapolis Center
10:37PM 43.0336 -93.5911 252° West 453 521 34,000  Level Minneapolis Center
10:38PM 42.9964 -93.7536 253° West 453 521 34,000  Level Minneapolis Center
10:39PM 42.9586 -93.9144 252° West 450 518 34,000  Level Minneapolis Center
10:40PM 42.9197 -94.0781 252° West 456 525 34,000  Level Minneapolis Center
10:41PM 42.8689 -94.2714 250° West 456 525 34,000  Level Minneapolis Center
10:42PM 42.8289 -94.4344 252° West 456 525 34,000  Level Minneapolis Center
10:43PM 42.7847 -94.6103 251° West 461 531 34,000  Level Minneapolis Center
10:44PM 42.7447 -94.7694 251° West 449 517 34,000  Level Minneapolis Center
10:45PM 42.7069 -94.9200 251° West 455 524 34,000  Level Minneapolis Center
10:46PM 42.6656 -95.0844 251° West 460 529 34,000  Level Minneapolis Center
10:47PM 42.6236 -95.2525 251° West 467 537 34,000  Level Minneapolis Center
10:48PM 42.5808 -95.4178 251° West 466 536 34,000  Level Minneapolis Center
10:49PM 42.5294 -95.6164 251° West 467 537 34,000  Level Minneapolis Center
10:50PM 42.4867 -95.7792 250° West 462 532 34,000  Level Minneapolis Center
10:51PM 42.4431 -95.9444 250° West 467 537 34,000  Level Minneapolis Center
10:52PM 42.3994 -96.1097 250° West 469 540 34,000  Level Minneapolis Center
10:53PM 42.3553 -96.2750 250° West 469 540 34,000  Level Minneapolis Center
10:54PM 42.3125 -96.4386 251° West 466 536 34,000  Level Minneapolis Center
10:55PM 42.2667 -96.6017 249° West 467 537 34,000  Level Minneapolis Center
10:56PM 42.2233 -96.7642 250° West 464 534 34,000  Level Minneapolis Center
10:57PM 42.1706 -96.9603 250° West 465 535 34,000  Level Minneapolis Center
10:58PM 42.1250 -97.1231 249° West 467 537 34,000  Level Minneapolis Center
10:59PM 42.0794 -97.2872 250° West 470 541 34,000  Level Minneapolis Center
11:00PM 42.0331 -97.4539 250° West 474 545 34,000  Level Minneapolis Center
11:01PM 41.9861 -97.6192 249° West 474 545 34,000  Level Minneapolis Center
11:02PM 41.9394 -97.7833 249° West 473 544 34,000  Level Minneapolis Center
11:03PM 41.8933 -97.9481 249° West 473 544 34,000  Level Minneapolis Center
11:04PM 41.8456 -98.1128 249° West 474 545 34,000  Level Minneapolis Center
11:05PM 41.7931 -98.2975 249° West 472 543 34,000  Level Minneapolis Center
11:06PM 41.7447 -98.4608 248° West 472 543 34,000  Level Minneapolis Center
11:07PM 41.6978 -98.6244 249° West 473 544 34,000  Level Minneapolis Center
11:08PM 41.6503 -98.7853 248° West 470 541 34,000  Level Minneapolis Center
11:09PM 41.6019 -98.9486 248° West 474 545 34,000  Level Minneapolis Center
11:10PM 41.5536 -99.1117 248° West 475 547 34,000  Level Minneapolis Center
11:11PM 41.4947 -99.3072 248° West 477 549 34,000  Level Minneapolis Center
11:12PM 41.4464 -99.4708 249° West 477 549 34,000  Level Minneapolis Center
11:13PM 41.3967 -99.6336 248° West 476 548 34,000  Level Minneapolis Center
11:15PM 41.3400 -99.8161 248° West 476 548 34,000  Level Denver Center
11:16PM 41.2839 -99.9978 248° West 477 549 34,000  Level Denver Center
11:17PM 41.2364 -100.1519 248° West 474 545 34,000  Level Denver Center
11:18PM 41.1881 -100.3061 247° West 474 545 34,000  Level Denver Center
11:19PM 41.1325 -100.4842 248° West 472 543 34,000  Level Denver Center
11:20PM 41.0842 -100.6364 247° West 472 543 34,000  Level Denver Center
11:21PM 41.0283 -100.8139 247° West 473 544 34,000  Level Denver Center
11:22PM 40.9778 -100.9639 246° West 474 545 34,000  Level Denver Center
11:23PM 40.9186 -101.1394 246° West 474 545 34,000  Level Denver Center
11:24PM 40.8689 -101.2922 247° West 475 547 34,000  Level Denver Center
11:25PM 40.8092 -101.4706 246° West 477 549 34,000  Level Denver Center
11:26PM 40.7475 -101.6497 246° West 481 554 34,000  Level Denver Center
11:27PM 40.6875 -101.8278 246° West 477 549 34,000  Level Denver Center
11:28PM 40.6350 -101.9808 246° West 479 551 34,000  Level Denver Center
11:29PM 40.5753 -102.1572 246° West 475 547 34,000  Level Denver Center
11:30PM 40.5228 -102.3092 246° West 476 548 34,000  Level Denver Center
11:31PM 40.4697 -102.4603 245° Southwest 476 548 34,000  Level Denver Center
11:32PM 40.4069 -102.6378 245° Southwest 481 554 34,000  Level Denver Center
11:33PM 40.3494 -102.8011 245° Southwest 476 548 34,000  Level Denver Center
11:34PM 40.2939 -102.9614 246° West 479 551 34,000  Level Denver Center
11:36PM 40.2364 -103.1206 245° Southwest 478 550 34,000  Level Denver Center
11:37PM 40.1706 -103.3075 245° Southwest 480 552 34,000  Level Denver Center
11:38PM 40.1133 -103.4669 245° Southwest 481 554 34,000  Level Denver Center
11:39PM 40.0561 -103.6258 245° Southwest 481 554 34,000  Level Denver Center
11:40PM 39.9983 -103.7867 245° Southwest 487 560 34,000  Level Denver Center
11:41PM 39.9406 -103.9439 244° Southwest 477 549 34,000  Level Denver Center
11:42PM 39.8839 -104.1019 245° Southwest 476 548 34,000  Level Denver Center
11:43PM 39.8258 -104.2578 244° Southwest 475 547 34,000  Level Denver Center
11:44PM 39.7572 -104.4419 244° Southwest 474 545 34,000  Level Denver Center
11:45PM 39.6986 -104.5978 244° Southwest 476 548 34,000  Level Denver Center
11:46PM 39.6275 -104.7464 238° Southwest 491 565 34,000  Level Denver Center
11:47PM 39.5592 -104.8853 237° Southwest 475 547 34,000  Level Denver Center
11:48PM 39.4856 -105.0319 237° Southwest 484 557 34,000  Level Denver Center
11:49PM 39.4139 -105.1756 237° Southwest 471 542 34,000  Level Denver Center
11:50PM 39.3406 -105.3214 237° Southwest 488 562 34,000  Level Denver Center
11:51PM 39.2456 -105.4397 224° Southwest 467 537 34,000  Level Denver Center
11:52PM 39.1228 -105.5600 217° Southwest 470 541 34,000  Level Denver Center
11:53PM 39.0147 -105.6642 217° Southwest 480 552 34,000  Level Denver Center
11:54PM 38.8881 -105.7847 217° Southwest 482 555 34,000  Level Denver Center
11:55PM 38.7794 -105.8894 217° Southwest 483 556 34,000  Level Denver Center
11:56PM 38.6700 -105.9936 217° Southwest 484 557 34,000  Level Denver Center
11:57PM 38.5631 -106.0961 217° Southwest 486 559 34,000  Level Denver Center
11:58PM 38.4558 -106.1981 217° Southwest 483 556 34,000  Level Denver Center
11:59PM 38.3478 -106.2986 216° Southwest 480 552 34,000  Level Denver Center
12:00AM 38.2406 -106.3989 216° Southwest 476 548 34,000  Level Denver Center
12:01AM 38.1225 -106.5092 216° Southwest 476 548 34,000  Level Denver Center
12:02AM 38.0206 -106.6042 216° Southwest 472 543 34,000  Level Denver Center
12:03AM 37.9019 -106.7147 216° Southwest 473 544 34,000  Level Denver Center
12:04AM 37.7933 -106.8164 217° Southwest 466 536 34,000  Level Denver Center
12:05AM 37.6911 -106.9097 216° Southwest 471 542 34,000  Level Denver Center
12:06AM 37.5886 -107.0031 216° Southwest 473 544 34,000  Level Denver Center
12:07AM 37.4706 -107.1103 216° Southwest 470 541 34,000  Level Denver Center
12:08AM 37.3694 -107.2025 216° Southwest 468 539 34,000  Level Denver Center
12:09AM 37.2683 -107.2947 216° Southwest 467 537 34,000  Level Denver Center
12:10AM 37.1500 -107.4006 215° Southwest 467 537 34,000  Level Denver Center
12:12AM 36.9842 -107.5528 216° Southwest 463 533 34,000  Level Albuquerque Center
12:12AM 36.9506 -107.5814 214° Southwest 462 532 34,000  Level Denver Center
12:13AM 36.8339 -107.6836 215° Southwest 459 528 34,000  Level Denver Center
12:15AM 36.7353 -107.7736 216° Southwest 457 526 34,000  Level Denver Center
12:16AM 36.6189 -107.8758 215° Southwest 455 524 34,000  Level Denver Center
12:17AM 36.5208 -107.9636 216° Southwest 455 524 34,000  Level Denver Center
12:18AM 36.4228 -108.0503 215° Southwest 450 518 34,000  Level Denver Center
12:19AM 36.3083 -108.1514 215° Southwest 451 519 34,000  Level Denver Center
12:20AM 36.2100 -108.2383 216° Southwest 450 518 34,000  Level Denver Center
12:21AM 36.1111 -108.3239 215° Southwest 451 519 34,000  Level Denver Center
12:21AM 36.0450 -108.3817 215° Southwest 450 518 34,000  Level Albuquerque Center
12:22AM 35.9458 -108.4694 216° Southwest 452 520 34,000  Level Albuquerque Center
12:23AM 35.8300 -108.5683 215° Southwest 450 518 34,000  Level Albuquerque Center
12:24AM 35.7314 -108.6533 215° Southwest 447 514 34,000  Level Albuquerque Center
12:25AM 35.6342 -108.7375 215° Southwest 445 512 34,000  Level Albuquerque Center
12:26AM 35.5217 -108.8333 215° Southwest 441 507 34,000  Level Albuquerque Center
12:27AM 35.4350 -108.9275 222° Southwest 435 501 34,000  Level Albuquerque Center
12:28AM 35.3561 -109.0303 227° Southwest 430 495 34,000  Level Albuquerque Center
12:29AM 35.2769 -109.1319 226° Southwest 431 496 34,000  Level Albuquerque Center
12:30AM 35.1844 -109.2508 226° Southwest 430 495 34,000  Level Albuquerque Center
12:31AM 35.1072 -109.3517 227° Southwest 426 490 34,000  Level Albuquerque Center
12:32AM 35.0289 -109.4506 226° Southwest 423 487 34,000  Level Albuquerque Center
12:33AM 34.9375 -109.5608 225° Southwest 416 479 34,000  Level Albuquerque Center
12:34AM 34.8600 -109.6608 227° Southwest 420 483 34,000  Level Albuquerque Center
12:35AM 34.7831 -109.7614 227° Southwest 421 484 34,000  Level Albuquerque Center
12:36AM 34.7003 -109.8822 230° Southwest 421 484 34,000 -120 Level Albuquerque Center
12:37AM 34.6547 -109.9997 245° Southwest 409 471 33,800 -600 Descending Albuquerque Center
12:38AM 34.6108 -110.1247 247° West 414 476 32,900 -1,020 Descending Albuquerque Center
12:39AM 34.5575 -110.2725 246° West 425 489 31,800 -1,080 Descending Albuquerque Center
12:40AM 34.5081 -110.3914 243° Southwest 419 482 30,800 -1,200 Descending Albuquerque Center
12:41AM 34.4656 -110.5158 248° West 404 465 29,500 -1,620 Descending Albuquerque Center
12:42AM 34.4222 -110.6292 245° Southwest 379 436 27,600 -1,920 Descending Albuquerque Center
12:43AM 34.3783 -110.7389 244° Southwest 367 422 25,700 -1,920 Descending Albuquerque Center
12:44AM 34.3253 -110.8375 237° Southwest 355 409 23,800 -1,860 Descending Albuquerque Center
12:46AM 34.2567 -110.9219 226° Southwest 351 404 22,000 -1,800 Descending Albuquerque Center
12:47AM 34.1908 -111.0064 227° Southwest 347 399 20,200 -1,800 Descending Albuquerque Center
12:48AM 34.1261 -111.0906 227° Southwest 343 395 18,400 -1,800 Descending Albuquerque Center
12:49AM 34.0625 -111.1736 227° Southwest 340 391 16,600 -1,740 Descending Albuquerque Center
12:50AM 33.9983 -111.2547 226° Southwest 336 387 14,900 -1,740 Descending Albuquerque Center
12:51AM 33.9367 -111.3339 227° Southwest 326 375 13,200 -1,440 Descending Albuquerque Center
12:52AM 33.8744 -111.4117 226° Southwest 321 369 12,000 -1,440 Descending Albuquerque Center
12:53AM 33.8025 -111.4725 215° Southwest 314 361 10,400 -1,560 Descending Albuquerque Center
12:54AM 33.7344 -111.5308 215° Southwest 299 344 8,900 -1,200 Descending Albuquerque Center
12:55AM 33.6678 -111.5883 216° Southwest 294 338 8,000 -840 Descending Albuquerque Center
12:56AM 33.6022 -111.6439 215° Southwest 288 331 7,300 -1,080 Descending Albuquerque Center
12:57AM 33.5503 -111.7158 229° Southwest 283 326 5,900 -1,140 Descending Albuquerque Center
12:58AM 33.5072 -111.7775 230° Southwest 243 280 5,000 -1,080 Descending Albuquerque Center
12:59AM 33.4700 -111.8283 229° Southwest 204 235 3,800 -1,200 Descending Albuquerque Center